EmailTwitter


Observations de surface / Canada / CYYZ (71624)

Régions: Québec | Canada | États-Unis | Europe | France | UK | Ailleurs
Station
Affichage
Infos & localisation pour CYYZ (71624) | Aide pour décoder les METARs

Observations prises le 2019-03-25 à 01H00 UTC à TORONTO A, ON (CYYZ)

Etat du ciel: partiellement nuageux.

Température: 2.0 Celsius

Point de rosée: -4.0 Celsius

Humidité relative: 64%

Facteur vent: -4.

Vents: Nord à 33 km/h ou 18 noeuds.

Pression au niveau moyen de la mer: 101.92 kilopascals.

Calage altimétrique: 101.83 kilopascals ou 30.07 pouces de mercure.

Visibilité horizontale: 15.00 milles terrestres ou 24.00 kilomètres.

Hauteur du plafond: 2225 mètres ( 7300 pieds ).

Observation METAR:

CYYZ 250100Z 36018KT 15SM BKN073 BKN250 02/M04 A3007 RMK AC5CI2 SLP192=